sensor_id;sensor_type;location;lat;lon;timestamp;temperature;humidity
17252;DHT22;8742;51.716;8.790;2023-04-06T00:00:57;3.20;79.90
17252;DHT22;8742;51.716;8.790;2023-04-06T00:03:25;3.20;80.00
17252;DHT22;8742;51.716;8.790;2023-04-06T00:05:52;3.20;80.00
17252;DHT22;8742;51.716;8.790;2023-04-06T00:08:18;3.20;80.60
17252;DHT22;8742;51.716;8.790;2023-04-06T00:10:46;3.20;80.90
17252;DHT22;8742;51.716;8.790;2023-04-06T00:13:13;3.20;80.30
17252;DHT22;8742;51.716;8.790;2023-04-06T00:15:42;3.20;80.50
17252;DHT22;8742;51.716;8.790;2023-04-06T00:18:09;3.20;80.20
17252;DHT22;8742;51.716;8.790;2023-04-06T00:20:36;3.20;80.90
17252;DHT22;8742;51.716;8.790;2023-04-06T00:23:02;3.10;80.70
17252;DHT22;8742;51.716;8.790;2023-04-06T00:25:30;3.10;80.60
17252;DHT22;8742;51.716;8.790;2023-04-06T00:27:57;3.10;81.60
17252;DHT22;8742;51.716;8.790;2023-04-06T00:30:23;3.00;80.90
17252;DHT22;8742;51.716;8.790;2023-04-06T00:32:52;3.00;81.20
17252;DHT22;8742;51.716;8.790;2023-04-06T00:35:19;3.00;80.90
17252;DHT22;8742;51.716;8.790;2023-04-06T00:37:46;3.00;81.20
17252;DHT22;8742;51.716;8.790;2023-04-06T00:40:14;3.00;81.50
17252;DHT22;8742;51.716;8.790;2023-04-06T00:42:41;3.00;82.30
17252;DHT22;8742;51.716;8.790;2023-04-06T00:45:09;3.00;81.90
17252;DHT22;8742;51.716;8.790;2023-04-06T00:47:36;3.00;81.60
17252;DHT22;8742;51.716;8.790;2023-04-06T00:50:06;3.00;81.90
17252;DHT22;8742;51.716;8.790;2023-04-06T00:52:34;3.00;82.10
17252;DHT22;8742;51.716;8.790;2023-04-06T00:55:01;3.00;82.50
17252;DHT22;8742;51.716;8.790;2023-04-06T00:57:28;3.00;82.10
17252;DHT22;8742;51.716;8.790;2023-04-06T00:59:55;3.00;82.10
17252;DHT22;8742;51.716;8.790;2023-04-06T01:02:23;3.00;82.10
17252;DHT22;8742;51.716;8.790;2023-04-06T01:04:50;3.00;82.50
17252;DHT22;8742;51.716;8.790;2023-04-06T01:07:19;2.90;82.30
17252;DHT22;8742;51.716;8.790;2023-04-06T01:09:46;2.90;82.50
17252;DHT22;8742;51.716;8.790;2023-04-06T01:12:13;2.90;83.00
17252;DHT22;8742;51.716;8.790;2023-04-06T01:14:40;2.80;83.50
17252;DHT22;8742;51.716;8.790;2023-04-06T01:17:07;2.80;83.60
17252;DHT22;8742;51.716;8.790;2023-04-06T01:19:33;2.70;83.10
17252;DHT22;8742;51.716;8.790;2023-04-06T01:22:01;2.70;83.00
17252;DHT22;8742;51.716;8.790;2023-04-06T01:24:29;2.70;84.40
17252;DHT22;8742;51.716;8.790;2023-04-06T01:26:56;2.60;84.70
17252;DHT22;8742;51.716;8.790;2023-04-06T01:29:23;2.60;85.50
17252;DHT22;8742;51.716;8.790;2023-04-06T01:31:50;2.60;85.20
17252;DHT22;8742;51.716;8.790;2023-04-06T01:34:17;2.50;85.40
17252;DHT22;8742;51.716;8.790;2023-04-06T01:36:44;2.50;86.00
17252;DHT22;8742;51.716;8.790;2023-04-06T01:39:11;2.50;86.60
17252;DHT22;8742;51.716;8.790;2023-04-06T01:41:39;2.50;86.80
17252;DHT22;8742;51.716;8.790;2023-04-06T01:44:06;2.40;86.80
17252;DHT22;8742;51.716;8.790;2023-04-06T01:46:33;2.40;87.20
17252;DHT22;8742;51.716;8.790;2023-04-06T01:49:00;2.40;88.50
17252;DHT22;8742;51.716;8.790;2023-04-06T01:51:27;2.40;88.80
17252;DHT22;8742;51.716;8.790;2023-04-06T01:53:53;2.40;90.00
17252;DHT22;8742;51.716;8.790;2023-04-06T01:56:20;2.40;89.10
17252;DHT22;8742;51.716;8.790;2023-04-06T01:58:49;2.40;89.70
17252;DHT22;8742;51.716;8.790;2023-04-06T02:01:16;2.30;90.20
17252;DHT22;8742;51.716;8.790;2023-04-06T02:03:43;2.30;90.00
17252;DHT22;8742;51.716;8.790;2023-04-06T02:06:10;2.30;90.10
17252;DHT22;8742;51.716;8.790;2023-04-06T02:08:37;2.30;90.00
17252;DHT22;8742;51.716;8.790;2023-04-06T02:11:04;2.30;90.00
17252;DHT22;8742;51.716;8.790;2023-04-06T02:13:31;2.30;90.30
17252;DHT22;8742;51.716;8.790;2023-04-06T02:15:59;2.20;90.40
17252;DHT22;8742;51.716;8.790;2023-04-06T02:18:28;2.20;90.60
17252;DHT22;8742;51.716;8.790;2023-04-06T02:20:54;2.20;90.60
17252;DHT22;8742;51.716;8.790;2023-04-06T02:23:21;2.20;91.20
17252;DHT22;8742;51.716;8.790;2023-04-06T02:25:48;2.20;91.10
17252;DHT22;8742;51.716;8.790;2023-04-06T02:28:15;2.20;92.00
17252;DHT22;8742;51.716;8.790;2023-04-06T02:30:42;2.20;92.30
17252;DHT22;8742;51.716;8.790;2023-04-06T02:33:10;2.20;92.30
17252;DHT22;8742;51.716;8.790;2023-04-06T02:35:37;2.20;92.40
17252;DHT22;8742;51.716;8.790;2023-04-06T02:38:05;2.20;92.90
17252;DHT22;8742;51.716;8.790;2023-04-06T02:40:31;2.20;92.70
17252;DHT22;8742;51.716;8.790;2023-04-06T02:42:58;2.30;92.80
17252;DHT22;8742;51.716;8.790;2023-04-06T02:45:25;2.30;92.90
17252;DHT22;8742;51.716;8.790;2023-04-06T02:47:52;2.30;92.80
17252;DHT22;8742;51.716;8.790;2023-04-06T02:50:20;2.30;92.60
17252;DHT22;8742;51.716;8.790;2023-04-06T02:52:47;2.30;92.70
17252;DHT22;8742;51.716;8.790;2023-04-06T02:55:14;2.30;93.10
17252;DHT22;8742;51.716;8.790;2023-04-06T02:57:41;2.30;93.60
17252;DHT22;8742;51.716;8.790;2023-04-06T03:00:09;2.30;93.50
17252;DHT22;8742;51.716;8.790;2023-04-06T03:02:36;2.30;93.10
17252;DHT22;8742;51.716;8.790;2023-04-06T03:05:04;2.30;93.40
17252;DHT22;8742;51.716;8.790;2023-04-06T03:07:32;2.30;93.60
17252;DHT22;8742;51.716;8.790;2023-04-06T03:09:59;2.30;93.80
17252;DHT22;8742;51.716;8.790;2023-04-06T03:12:26;2.30;93.70
17252;DHT22;8742;51.716;8.790;2023-04-06T03:14:53;2.30;94.00
17252;DHT22;8742;51.716;8.790;2023-04-06T03:17:20;2.30;93.90
17252;DHT22;8742;51.716;8.790;2023-04-06T03:19:47;2.30;93.60
17252;DHT22;8742;51.716;8.790;2023-04-06T03:22:13;2.30;94.10
17252;DHT22;8742;51.716;8.790;2023-04-06T03:24:42;2.30;94.50
17252;DHT22;8742;51.716;8.790;2023-04-06T03:27:09;2.30;94.40
17252;DHT22;8742;51.716;8.790;2023-04-06T03:29:35;2.30;94.40
17252;DHT22;8742;51.716;8.790;2023-04-06T03:32:03;2.20;95.20
17252;DHT22;8742;51.716;8.790;2023-04-06T03:34:30;2.20;94.90
17252;DHT22;8742;51.716;8.790;2023-04-06T03:36:57;2.30;95.00
17252;DHT22;8742;51.716;8.790;2023-04-06T03:39:24;2.20;94.60
17252;DHT22;8742;51.716;8.790;2023-04-06T03:41:52;2.20;95.00
17252;DHT22;8742;51.716;8.790;2023-04-06T03:44:19;2.20;95.00
17252;DHT22;8742;51.716;8.790;2023-04-06T03:46:46;2.20;95.20
17252;DHT22;8742;51.716;8.790;2023-04-06T03:49:13;2.30;95.50
17252;DHT22;8742;51.716;8.790;2023-04-06T03:51:40;2.20;95.70
17252;DHT22;8742;51.716;8.790;2023-04-06T03:54:07;2.20;96.00
17252;DHT22;8742;51.716;8.790;2023-04-06T03:56:33;2.20;95.90
17252;DHT22;8742;51.716;8.790;2023-04-06T03:59:02;2.20;95.70
17252;DHT22;8742;51.716;8.790;2023-04-06T04:01:29;2.20;96.20
17252;DHT22;8742;51.716;8.790;2023-04-06T04:03:56;2.20;96.10
17252;DHT22;8742;51.716;8.790;2023-04-06T04:06:23;2.10;96.10
17252;DHT22;8742;51.716;8.790;2023-04-06T04:08:50;2.10;96.50
17252;DHT22;8742;51.716;8.790;2023-04-06T04:11:17;2.10;96.10
17252;DHT22;8742;51.716;8.790;2023-04-06T04:13:44;2.10;96.30
17252;DHT22;8742;51.716;8.790;2023-04-06T04:16:12;2.10;96.60
17252;DHT22;8742;51.716;8.790;2023-04-06T04:18:39;2.10;96.80
17252;DHT22;8742;51.716;8.790;2023-04-06T04:21:09;2.10;97.00
17252;DHT22;8742;51.716;8.790;2023-04-06T04:23:35;2.10;96.80
17252;DHT22;8742;51.716;8.790;2023-04-06T04:26:02;2.10;97.00
17252;DHT22;8742;51.716;8.790;2023-04-06T04:28:29;2.10;97.40
17252;DHT22;8742;51.716;8.790;2023-04-06T04:30:56;2.10;97.20
17252;DHT22;8742;51.716;8.790;2023-04-06T04:33:24;2.10;96.90
17252;DHT22;8742;51.716;8.790;2023-04-06T04:35:51;2.10;97.10
17252;DHT22;8742;51.716;8.790;2023-04-06T04:38:18;2.10;97.10
17252;DHT22;8742;51.716;8.790;2023-04-06T04:40:45;2.10;97.20
17252;DHT22;8742;51.716;8.790;2023-04-06T04:43:12;2.10;97.50
17252;DHT22;8742;51.716;8.790;2023-04-06T04:45:40;2.00;97.40
17252;DHT22;8742;51.716;8.790;2023-04-06T04:48:07;2.00;97.50
17252;DHT22;8742;51.716;8.790;2023-04-06T04:50:35;2.00;97.70
17252;DHT22;8742;51.716;8.790;2023-04-06T04:53:02;2.00;98.00
17252;DHT22;8742;51.716;8.790;2023-04-06T04:55:31;1.90;98.30
17252;DHT22;8742;51.716;8.790;2023-04-06T04:57:58;1.90;98.30
17252;DHT22;8742;51.716;8.790;2023-04-06T05:00:25;2.00;98.80
17252;DHT22;8742;51.716;8.790;2023-04-06T05:02:52;1.90;98.90
17252;DHT22;8742;51.716;8.790;2023-04-06T05:05:19;1.90;98.80
17252;DHT22;8742;51.716;8.790;2023-04-06T05:07:47;1.90;99.00
17252;DHT22;8742;51.716;8.790;2023-04-06T05:10:14;1.90;99.10
17252;DHT22;8742;51.716;8.790;2023-04-06T05:12:41;1.90;98.70
17252;DHT22;8742;51.716;8.790;2023-04-06T05:15:09;2.00;98.70
17252;DHT22;8742;51.716;8.790;2023-04-06T05:17:36;2.00;98.60
17252;DHT22;8742;51.716;8.790;2023-04-06T05:20:03;2.00;98.60
17252;DHT22;8742;51.716;8.790;2023-04-06T05:22:31;2.10;98.70
17252;DHT22;8742;51.716;8.790;2023-04-06T05:24:59;2.10;98.60
17252;DHT22;8742;51.716;8.790;2023-04-06T05:27:26;2.10;98.30
17252;DHT22;8742;51.716;8.790;2023-04-06T05:29:53;2.20;98.30
17252;DHT22;8742;51.716;8.790;2023-04-06T05:32:20;2.20;98.40
17252;DHT22;8742;51.716;8.790;2023-04-06T05:34:48;2.30;98.70
17252;DHT22;8742;51.716;8.790;2023-04-06T05:37:15;2.30;98.70
17252;DHT22;8742;51.716;8.790;2023-04-06T05:39:42;2.40;99.00
17252;DHT22;8742;51.716;8.790;2023-04-06T05:42:11;2.40;98.50
17252;DHT22;8742;51.716;8.790;2023-04-06T05:44:38;2.50;98.70
17252;DHT22;8742;51.716;8.790;2023-04-06T05:47:05;2.60;99.10
17252;DHT22;8742;51.716;8.790;2023-04-06T05:49:32;2.60;98.70
17252;DHT22;8742;51.716;8.790;2023-04-06T05:52:00;2.70;99.10
17252;DHT22;8742;51.716;8.790;2023-04-06T05:54:27;2.80;98.60
17252;DHT22;8742;51.716;8.790;2023-04-06T05:56:54;2.80;98.50
17252;DHT22;8742;51.716;8.790;2023-04-06T05:59:22;2.90;98.70
17252;DHT22;8742;51.716;8.790;2023-04-06T06:01:49;3.00;98.60
17252;DHT22;8742;51.716;8.790;2023-04-06T06:04:16;3.10;98.50
17252;DHT22;8742;51.716;8.790;2023-04-06T06:06:43;3.20;98.20
17252;DHT22;8742;51.716;8.790;2023-04-06T06:09:10;3.30;98.20
17252;DHT22;8742;51.716;8.790;2023-04-06T06:11:37;3.40;98.10
17252;DHT22;8742;51.716;8.790;2023-04-06T06:14:04;3.40;98.10
17252;DHT22;8742;51.716;8.790;2023-04-06T06:16:32;3.50;97.80
17252;DHT22;8742;51.716;8.790;2023-04-06T06:18:59;3.60;97.80
17252;DHT22;8742;51.716;8.790;2023-04-06T06:21:26;3.60;97.40
17252;DHT22;8742;51.716;8.790;2023-04-06T06:23:53;3.70;97.40
17252;DHT22;8742;51.716;8.790;2023-04-06T06:26:20;3.80;97.00
17252;DHT22;8742;51.716;8.790;2023-04-06T06:28:47;3.90;97.10
17252;DHT22;8742;51.716;8.790;2023-04-06T06:31:14;4.00;97.30
17252;DHT22;8742;51.716;8.790;2023-04-06T06:33:43;4.10;97.00
17252;DHT22;8742;51.716;8.790;2023-04-06T06:36:09;4.20;96.90
17252;DHT22;8742;51.716;8.790;2023-04-06T06:38:36;4.30;96.70
17252;DHT22;8742;51.716;8.790;2023-04-06T06:41:04;4.50;96.30
17252;DHT22;8742;51.716;8.790;2023-04-06T06:43:31;4.70;95.20
17252;DHT22;8742;51.716;8.790;2023-04-06T06:45:58;4.90;94.50
17252;DHT22;8742;51.716;8.790;2023-04-06T06:48:25;5.00;94.20
17252;DHT22;8742;51.716;8.790;2023-04-06T06:50:54;5.20;93.90
17252;DHT22;8742;51.716;8.790;2023-04-06T06:53:21;5.30;93.30
17252;DHT22;8742;51.716;8.790;2023-04-06T06:55:48;5.50;92.90
17252;DHT22;8742;51.716;8.790;2023-04-06T06:58:17;5.70;92.40
17252;DHT22;8742;51.716;8.790;2023-04-06T07:00:44;5.80;91.60
17252;DHT22;8742;51.716;8.790;2023-04-06T07:03:11;5.90;91.60
17252;DHT22;8742;51.716;8.790;2023-04-06T07:05:38;6.00;91.30
17252;DHT22;8742;51.716;8.790;2023-04-06T07:08:06;6.10;91.40
17252;DHT22;8742;51.716;8.790;2023-04-06T07:10:33;6.30;90.80
17252;DHT22;8742;51.716;8.790;2023-04-06T07:13:00;6.40;90.80
17252;DHT22;8742;51.716;8.790;2023-04-06T07:15:27;6.50;90.40
17252;DHT22;8742;51.716;8.790;2023-04-06T07:17:55;6.60;90.50
17252;DHT22;8742;51.716;8.790;2023-04-06T07:20:22;6.70;90.50
17252;DHT22;8742;51.716;8.790;2023-04-06T07:22:49;6.80;90.00
17252;DHT22;8742;51.716;8.790;2023-04-06T07:25:17;6.90;89.70
17252;DHT22;8742;51.716;8.790;2023-04-06T07:27:44;7.10;89.00
17252;DHT22;8742;51.716;8.790;2023-04-06T07:30:11;7.10;88.40
17252;DHT22;8742;51.716;8.790;2023-04-06T07:32:38;7.30;87.10
17252;DHT22;8742;51.716;8.790;2023-04-06T07:35:05;7.40;87.70
17252;DHT22;8742;51.716;8.790;2023-04-06T07:37:32;7.40;87.50
17252;DHT22;8742;51.716;8.790;2023-04-06T07:39:59;7.50;87.50
17252;DHT22;8742;51.716;8.790;2023-04-06T07:42:28;7.60;85.70
17252;DHT22;8742;51.716;8.790;2023-04-06T07:44:54;7.70;85.20
17252;DHT22;8742;51.716;8.790;2023-04-06T07:47:22;7.90;84.10
17252;DHT22;8742;51.716;8.790;2023-04-06T07:49:49;8.00;83.90
17252;DHT22;8742;51.716;8.790;2023-04-06T07:52:16;8.10;82.80
17252;DHT22;8742;51.716;8.790;2023-04-06T07:54:43;8.20;80.90
17252;DHT22;8742;51.716;8.790;2023-04-06T07:57:10;8.30;81.10
17252;DHT22;8742;51.716;8.790;2023-04-06T07:59:38;8.40;80.90
17252;DHT22;8742;51.716;8.790;2023-04-06T08:02:05;8.50;80.50
17252;DHT22;8742;51.716;8.790;2023-04-06T08:04:32;8.60;81.30
17252;DHT22;8742;51.716;8.790;2023-04-06T08:06:59;8.70;81.50
17252;DHT22;8742;51.716;8.790;2023-04-06T08:09:26;8.90;81.20
17252;DHT22;8742;51.716;8.790;2023-04-06T08:11:53;9.00;81.90
17252;DHT22;8742;51.716;8.790;2023-04-06T08:14:20;9.20;83.10
17252;DHT22;8742;51.716;8.790;2023-04-06T08:16:48;9.50;82.60
17252;DHT22;8742;51.716;8.790;2023-04-06T08:19:15;10.10;80.50
17252;DHT22;8742;51.716;8.790;2023-04-06T08:21:42;10.80;78.20
17252;DHT22;8742;51.716;8.790;2023-04-06T08:24:09;11.60;77.00
17252;DHT22;8742;51.716;8.790;2023-04-06T08:26:36;12.30;77.50
17252;DHT22;8742;51.716;8.790;2023-04-06T08:29:03;13.10;74.00
17252;DHT22;8742;51.716;8.790;2023-04-06T08:31:33;13.90;70.70
17252;DHT22;8742;51.716;8.790;2023-04-06T08:34:01;14.40;69.40
17252;DHT22;8742;51.716;8.790;2023-04-06T08:36:28;15.00;66.10
17252;DHT22;8742;51.716;8.790;2023-04-06T08:38:55;15.30;63.60
17252;DHT22;8742;51.716;8.790;2023-04-06T08:41:22;15.50;63.40
17252;DHT22;8742;51.716;8.790;2023-04-06T08:43:56;15.70;61.10
17252;DHT22;8742;51.716;8.790;2023-04-06T08:46:24;15.90;61.20
17252;DHT22;8742;51.716;8.790;2023-04-06T08:48:55;16.00;62.30
17252;DHT22;8742;51.716;8.790;2023-04-06T08:51:24;16.50;59.90
17252;DHT22;8742;51.716;8.790;2023-04-06T08:53:52;16.60;58.70
17252;DHT22;8742;51.716;8.790;2023-04-06T08:56:21;16.70;58.70
17252;DHT22;8742;51.716;8.790;2023-04-06T08:58:49;16.80;57.40
17252;DHT22;8742;51.716;8.790;2023-04-06T09:01:20;16.90;58.20
17252;DHT22;8742;51.716;8.790;2023-04-06T09:03:49;16.90;56.10
17252;DHT22;8742;51.716;8.790;2023-04-06T09:06:16;16.90;56.40
17252;DHT22;8742;51.716;8.790;2023-04-06T09:08:44;17.00;55.90
17252;DHT22;8742;51.716;8.790;2023-04-06T09:11:11;16.90;57.30
17252;DHT22;8742;51.716;8.790;2023-04-06T09:13:46;17.00;56.40
17252;DHT22;8742;51.716;8.790;2023-04-06T09:16:14;17.00;55.50
17252;DHT22;8742;51.716;8.790;2023-04-06T09:18:41;16.80;56.20
17252;DHT22;8742;51.716;8.790;2023-04-06T09:21:08;16.90;55.90
17252;DHT22;8742;51.716;8.790;2023-04-06T09:23:36;16.90;56.10
17252;DHT22;8742;51.716;8.790;2023-04-06T09:26:09;17.00;55.80
17252;DHT22;8742;51.716;8.790;2023-04-06T09:28:44;17.00;56.10
17252;DHT22;8742;51.716;8.790;2023-04-06T09:31:11;17.00;55.40
17252;DHT22;8742;51.716;8.790;2023-04-06T09:33:40;17.10;55.30
17252;DHT22;8742;51.716;8.790;2023-04-06T09:36:08;17.00;56.10
17252;DHT22;8742;51.716;8.790;2023-04-06T09:38:37;17.20;56.20
17252;DHT22;8742;51.716;8.790;2023-04-06T09:41:04;17.30;55.60
17252;DHT22;8742;51.716;8.790;2023-04-06T09:43:33;17.50;55.90
17252;DHT22;8742;51.716;8.790;2023-04-06T09:46:01;17.60;54.60
17252;DHT22;8742;51.716;8.790;2023-04-06T09:48:31;17.70;55.20
17252;DHT22;8742;51.716;8.790;2023-04-06T09:51:03;17.80;54.20
17252;DHT22;8742;51.716;8.790;2023-04-06T09:53:31;17.80;54.60
17252;DHT22;8742;51.716;8.790;2023-04-06T09:56:03;17.80;55.40
17252;DHT22;8742;51.716;8.790;2023-04-06T09:58:34;18.00;55.30
17252;DHT22;8742;51.716;8.790;2023-04-06T10:01:05;18.10;53.80
17252;DHT22;8742;51.716;8.790;2023-04-06T10:03:38;18.00;54.20
17252;DHT22;8742;51.716;8.790;2023-04-06T10:06:12;17.90;54.70
17252;DHT22;8742;51.716;8.790;2023-04-06T10:08:40;18.00;55.10
17252;DHT22;8742;51.716;8.790;2023-04-06T10:11:08;18.30;54.50
17252;DHT22;8742;51.716;8.790;2023-04-06T10:13:37;18.40;54.20
17252;DHT22;8742;51.716;8.790;2023-04-06T10:16:05;18.30;53.90
17252;DHT22;8742;51.716;8.790;2023-04-06T10:18:32;18.20;54.50
17252;DHT22;8742;51.716;8.790;2023-04-06T10:21:04;18.10;55.20
17252;DHT22;8742;51.716;8.790;2023-04-06T10:23:35;17.90;55.30
17252;DHT22;8742;51.716;8.790;2023-04-06T10:26:02;17.80;56.10
17252;DHT22;8742;51.716;8.790;2023-04-06T10:28:32;17.50;55.50
17252;DHT22;8742;51.716;8.790;2023-04-06T10:31:02;17.10;56.90
17252;DHT22;8742;51.716;8.790;2023-04-06T10:33:31;16.70;56.00
17252;DHT22;8742;51.716;8.790;2023-04-06T10:35:58;16.40;56.80
17252;DHT22;8742;51.716;8.790;2023-04-06T10:38:36;16.20;56.40
17252;DHT22;8742;51.716;8.790;2023-04-06T10:41:04;16.20;57.50
17252;DHT22;8742;51.716;8.790;2023-04-06T10:43:34;16.40;57.20
17252;DHT22;8742;51.716;8.790;2023-04-06T10:46:04;16.70;57.60
17252;DHT22;8742;51.716;8.790;2023-04-06T10:48:38;17.30;56.70
17252;DHT22;8742;51.716;8.790;2023-04-06T10:51:08;18.00;55.10
17252;DHT22;8742;51.716;8.790;2023-04-06T10:53:36;18.40;55.70
17252;DHT22;8742;51.716;8.790;2023-04-06T10:56:04;19.00;54.30
17252;DHT22;8742;51.716;8.790;2023-04-06T10:58:36;19.40;53.90
17252;DHT22;8742;51.716;8.790;2023-04-06T11:01:04;19.70;53.40
17252;DHT22;8742;51.716;8.790;2023-04-06T11:03:31;20.00;53.10
17252;DHT22;8742;51.716;8.790;2023-04-06T11:05:59;20.30;53.30
17252;DHT22;8742;51.716;8.790;2023-04-06T11:08:28;20.50;53.20
17252;DHT22;8742;51.716;8.790;2023-04-06T11:11:05;20.70;52.20
17252;DHT22;8742;51.716;8.790;2023-04-06T11:13:40;21.00;52.00
17252;DHT22;8742;51.716;8.790;2023-04-06T11:16:12;21.00;53.50
17252;DHT22;8742;51.716;8.790;2023-04-06T11:18:50;21.10;53.30
17252;DHT22;8742;51.716;8.790;2023-04-06T11:21:18;21.50;49.70
17252;DHT22;8742;51.716;8.790;2023-04-06T11:23:45;21.50;51.20
17252;DHT22;8742;51.716;8.790;2023-04-06T11:26:12;21.60;49.90
17252;DHT22;8742;51.716;8.790;2023-04-06T11:28:40;21.60;50.80
17252;DHT22;8742;51.716;8.790;2023-04-06T11:31:11;21.70;50.10
17252;DHT22;8742;51.716;8.790;2023-04-06T11:33:38;21.80;50.50
17252;DHT22;8742;51.716;8.790;2023-04-06T11:36:05;21.80;51.30
17252;DHT22;8742;51.716;8.790;2023-04-06T11:38:32;22.00;52.80
17252;DHT22;8742;51.716;8.790;2023-04-06T11:41:01;22.40;49.50
17252;DHT22;8742;51.716;8.790;2023-04-06T11:43:28;22.50;47.70
17252;DHT22;8742;51.716;8.790;2023-04-06T11:46:03;22.50;47.70
17252;DHT22;8742;51.716;8.790;2023-04-06T11:48:44;22.30;48.90
17252;DHT22;8742;51.716;8.790;2023-04-06T11:51:12;22.10;48.80
17252;DHT22;8742;51.716;8.790;2023-04-06T11:53:44;22.20;48.30
17252;DHT22;8742;51.716;8.790;2023-04-06T11:56:22;22.20;47.90
17252;DHT22;8742;51.716;8.790;2023-04-06T11:58:49;22.20;48.10
17252;DHT22;8742;51.716;8.790;2023-04-06T12:01:16;22.20;47.50
17252;DHT22;8742;51.716;8.790;2023-04-06T12:03:44;22.10;47.50
17252;DHT22;8742;51.716;8.790;2023-04-06T12:06:11;22.10;49.10
17252;DHT22;8742;51.716;8.790;2023-04-06T12:08:38;22.20;47.80
17252;DHT22;8742;51.716;8.790;2023-04-06T12:11:06;22.30;47.90
17252;DHT22;8742;51.716;8.790;2023-04-06T12:13:33;22.40;49.00
17252;DHT22;8742;51.716;8.790;2023-04-06T12:16:00;22.70;48.00
17252;DHT22;8742;51.716;8.790;2023-04-06T12:18:27;22.90;49.00
17252;DHT22;8742;51.716;8.790;2023-04-06T12:20:55;23.10;49.70
17252;DHT22;8742;51.716;8.790;2023-04-06T12:23:22;23.50;47.50
17252;DHT22;8742;51.716;8.790;2023-04-06T12:25:49;23.70;47.20
17252;DHT22;8742;51.716;8.790;2023-04-06T12:28:16;23.80;46.40
17252;DHT22;8742;51.716;8.790;2023-04-06T12:30:43;23.80;44.10
17252;DHT22;8742;51.716;8.790;2023-04-06T12:33:10;23.50;47.20
17252;DHT22;8742;51.716;8.790;2023-04-06T12:35:37;23.50;49.60
17252;DHT22;8742;51.716;8.790;2023-04-06T12:38:05;24.00;47.30
17252;DHT22;8742;51.716;8.790;2023-04-06T12:40:36;24.20;43.70
17252;DHT22;8742;51.716;8.790;2023-04-06T12:43:03;24.00;45.30
17252;DHT22;8742;51.716;8.790;2023-04-06T12:45:30;23.90;44.10
17252;DHT22;8742;51.716;8.790;2023-04-06T12:47:58;24.00;47.50
17252;DHT22;8742;51.716;8.790;2023-04-06T12:50:25;24.00;46.60
17252;DHT22;8742;51.716;8.790;2023-04-06T12:52:52;24.10;46.90
17252;DHT22;8742;51.716;8.790;2023-04-06T12:55:20;24.30;48.40
17252;DHT22;8742;51.716;8.790;2023-04-06T12:57:47;24.50;45.60
17252;DHT22;8742;51.716;8.790;2023-04-06T13:00:15;24.70;46.10
17252;DHT22;8742;51.716;8.790;2023-04-06T13:02:42;24.80;45.70
17252;DHT22;8742;51.716;8.790;2023-04-06T13:05:12;24.90;43.40
17252;DHT22;8742;51.716;8.790;2023-04-06T13:07:40;24.80;42.10
17252;DHT22;8742;51.716;8.790;2023-04-06T13:10:08;24.90;41.70
17252;DHT22;8742;51.716;8.790;2023-04-06T13:12:36;24.80;44.20
17252;DHT22;8742;51.716;8.790;2023-04-06T13:15:04;25.00;45.50
17252;DHT22;8742;51.716;8.790;2023-04-06T13:17:31;25.40;46.10
17252;DHT22;8742;51.716;8.790;2023-04-06T13:20:01;25.80;43.00
17252;DHT22;8742;51.716;8.790;2023-04-06T13:22:36;26.00;42.40
17252;DHT22;8742;51.716;8.790;2023-04-06T13:25:10;25.90;40.90
17252;DHT22;8742;51.716;8.790;2023-04-06T13:27:39;25.70;42.70
17252;DHT22;8742;51.716;8.790;2023-04-06T13:30:10;25.50;43.10
17252;DHT22;8742;51.716;8.790;2023-04-06T13:32:37;25.20;41.30
17252;DHT22;8742;51.716;8.790;2023-04-06T13:35:04;24.90;42.70
17252;DHT22;8742;51.716;8.790;2023-04-06T13:37:31;24.70;41.60
17252;DHT22;8742;51.716;8.790;2023-04-06T13:39:58;24.20;43.00
17252;DHT22;8742;51.716;8.790;2023-04-06T13:42:27;24.20;46.10
17252;DHT22;8742;51.716;8.790;2023-04-06T13:44:55;24.40;44.50
17252;DHT22;8742;51.716;8.790;2023-04-06T13:47:22;24.30;45.20
17252;DHT22;8742;51.716;8.790;2023-04-06T13:49:50;24.30;42.80
17252;DHT22;8742;51.716;8.790;2023-04-06T13:52:18;24.20;43.40
17252;DHT22;8742;51.716;8.790;2023-04-06T13:54:45;24.10;41.70
17252;DHT22;8742;51.716;8.790;2023-04-06T13:57:13;23.90;41.90
17252;DHT22;8742;51.716;8.790;2023-04-06T13:59:39;23.70;43.90
17252;DHT22;8742;51.716;8.790;2023-04-06T14:02:09;23.80;45.50
17252;DHT22;8742;51.716;8.790;2023-04-06T14:04:36;23.80;44.40
17252;DHT22;8742;51.716;8.790;2023-04-06T14:07:03;23.70;43.70
17252;DHT22;8742;51.716;8.790;2023-04-06T14:09:32;23.40;43.40
17252;DHT22;8742;51.716;8.790;2023-04-06T14:12:00;23.00;45.00
17252;DHT22;8742;51.716;8.790;2023-04-06T14:14:27;22.80;45.10
17252;DHT22;8742;51.716;8.790;2023-04-06T14:16:54;22.70;41.40
17252;DHT22;8742;51.716;8.790;2023-04-06T14:19:22;22.40;42.00
17252;DHT22;8742;51.716;8.790;2023-04-06T14:21:49;22.20;43.80
17252;DHT22;8742;51.716;8.790;2023-04-06T14:24:18;22.10;44.40
17252;DHT22;8742;51.716;8.790;2023-04-06T14:26:44;22.00;44.70
17252;DHT22;8742;51.716;8.790;2023-04-06T14:29:12;21.80;45.90
17252;DHT22;8742;51.716;8.790;2023-04-06T14:31:39;21.60;46.40
17252;DHT22;8742;51.716;8.790;2023-04-06T14:34:05;21.30;45.20
17252;DHT22;8742;51.716;8.790;2023-04-06T14:36:33;21.00;46.20
17252;DHT22;8742;51.716;8.790;2023-04-06T14:39:03;20.70;46.90
17252;DHT22;8742;51.716;8.790;2023-04-06T14:41:31;20.40;46.50
17252;DHT22;8742;51.716;8.790;2023-04-06T14:43:59;20.20;46.50
17252;DHT22;8742;51.716;8.790;2023-04-06T14:46:26;20.20;46.40
17252;DHT22;8742;51.716;8.790;2023-04-06T14:48:54;20.10;46.30
17252;DHT22;8742;51.716;8.790;2023-04-06T14:51:21;19.90;47.50
17252;DHT22;8742;51.716;8.790;2023-04-06T14:53:49;19.90;48.10
17252;DHT22;8742;51.716;8.790;2023-04-06T14:56:19;19.90;47.30
17252;DHT22;8742;51.716;8.790;2023-04-06T14:58:47;20.00;48.00
17252;DHT22;8742;51.716;8.790;2023-04-06T15:01:14;20.10;48.30
17252;DHT22;8742;51.716;8.790;2023-04-06T15:03:41;20.10;48.50
17252;DHT22;8742;51.716;8.790;2023-04-06T15:06:12;20.10;46.30
17252;DHT22;8742;51.716;8.790;2023-04-06T15:08:40;19.90;46.00
17252;DHT22;8742;51.716;8.790;2023-04-06T15:11:09;19.80;46.40
17252;DHT22;8742;51.716;8.790;2023-04-06T15:13:36;19.80;47.50
17252;DHT22;8742;51.716;8.790;2023-04-06T15:16:03;19.90;45.90
17252;DHT22;8742;51.716;8.790;2023-04-06T15:18:31;19.70;47.30
17252;DHT22;8742;51.716;8.790;2023-04-06T15:20:58;19.70;47.90
17252;DHT22;8742;51.716;8.790;2023-04-06T15:23:25;19.90;46.40
17252;DHT22;8742;51.716;8.790;2023-04-06T15:25:55;20.00;47.30
17252;DHT22;8742;51.716;8.790;2023-04-06T15:28:23;20.10;46.70
17252;DHT22;8742;51.716;8.790;2023-04-06T15:30:50;20.00;47.20
17252;DHT22;8742;51.716;8.790;2023-04-06T15:33:19;19.90;46.90
17252;DHT22;8742;51.716;8.790;2023-04-06T15:35:57;19.80;46.90
17252;DHT22;8742;51.716;8.790;2023-04-06T15:38:24;19.40;47.00
17252;DHT22;8742;51.716;8.790;2023-04-06T15:40:51;18.90;47.70
17252;DHT22;8742;51.716;8.790;2023-04-06T15:43:18;18.50;48.70
17252;DHT22;8742;51.716;8.790;2023-04-06T15:45:46;18.20;48.90
17252;DHT22;8742;51.716;8.790;2023-04-06T15:48:15;17.80;50.10
17252;DHT22;8742;51.716;8.790;2023-04-06T15:50:43;17.60;50.10
17252;DHT22;8742;51.716;8.790;2023-04-06T15:53:10;17.30;50.90
17252;DHT22;8742;51.716;8.790;2023-04-06T15:55:37;17.00;50.10
17252;DHT22;8742;51.716;8.790;2023-04-06T15:58:04;16.80;50.10